Latest Weather Observations for Larapuna (Eddystone Point)

IDT60801

Issued at 9:35 am EST Wednesday 3 September 2014 (issued every 30 minutes, with the page automatically refreshed every 10 minutes)

About weather observations | Map of weather stations | Latest weather observations for TAS | Other Formats
Station Details ID: 092045 Name: LARAPUNA (EDDYSTONE POINT) Lat: -40.99 Lon: 148.35 Height: 19.7 m
Data from the previous 72 hours. | See also: Recent months at Larapuna (Eddystone Point)
Date/Time
EST
Temp
°C
App
Temp
°C
Dew
Point
Rel
Hum
%
Delta-T
°C
Wind Press
QNH
hPa
Press
MSL
hPa
Rain
since 9 am
mm
Dir
 
Spd
km/h
Gust
km/h
Spd
kts
Gust
kts
03/09:30am 13.1 8.7 4.8 57 3.8 SSW 17 22 9 12 1020.7 1020.7 0.0
03/09:00am 12.2 8.0 3.9 57 3.7 SSW 15 20 8 11 1020.8 1020.8 0.0
03/08:30am 10.7 7.5 3.3 60 3.2 WSW 9 13 5 7 1020.8 1020.8 0.0
03/08:00am 9.3 5.3 2.9 64 2.7 WSW 13 17 7 9 1020.6 1020.6 0.0
03/07:30am 8.6 3.3 3.0 68 2.4 SW 20 24 11 13 1020.3 1020.3 0.0
03/07:00am 8.3 0.7 3.0 69 2.2 SSW 32 37 17 20 1020.0 1020.0 0.0
03/06:30am 8.7 0.2 3.1 68 2.4 SSW 37 43 20 23 1019.5 1019.5 0.0
03/06:00am 8.6 0.5 3.2 69 2.3 SSW 35 41 19 22 1019.4 1019.4 0.0
03/05:30am 8.6 0.5 3.4 70 2.2 SSW 35 41 19 22 1019.2 1019.2 0.0
03/05:00am 7.4 0.1 2.5 71 2.0 SW 30 33 16 18 1019.3 1019.3 0.0
03/04:30am 7.5 -0.4 2.4 70 2.1 SSW 33 39 18 21 1019.4 1019.4 0.0
03/04:00am 7.5 -0.2 2.4 70 2.1 SSW 32 35 17 19 1019.2 1019.2 0.0
03/03:30am 7.4 0.1 2.3 70 2.1 SSW 30 35 16 19 1019.3 1019.3 0.0
03/03:00am 7.5 -0.3 2.6 71 2.0 SSW 33 39 18 21 1019.3 1019.3 0.0
03/02:30am 7.7 0.2 3.2 73 1.9 SSW 32 41 17 22 1019.2 1019.2 0.0
03/02:00am 8.0 0.4 3.7 74 1.8 SSW 33 41 18 22 1019.4 1019.4 0.0
03/01:30am 8.2 0.2 3.7 73 1.9 SSW 35 39 19 21 1019.7 1019.7 0.0
03/01:00am 8.1 0.7 3.9 75 1.8 SSW 32 43 17 23 1019.7 1019.7 0.0
03/12:30am 7.8 1.9 3.7 75 1.8 SW 24 28 13 15 1019.8 1019.8 0.0
03/12:15am 8.2 2.3 3.9 74 1.9 SW 24 30 13 16 1019.9 1019.9 0.0
03/12:00am 9.1 0.7 3.9 70 2.3 S 37 43 20 23 1019.8 1019.8 0.0
 
Date/Time
EST
Temp
°C
App
Temp
°C
Dew
Point
Rel
Hum
%
Delta-T
°C
Wind Press
QNH
hPa
Press
MSL
hPa
Rain
since 9 am
mm
Dir
 
Spd
km/h
Gust
km/h
Spd
kts
Gust
kts
02/11:30pm 9.1 0.5 4.5 73 2.0 S 39 46 21 25 1019.7 1019.7 0.0
02/11:00pm 9.1 1.3 4.7 74 1.9 S 35 43 19 23 1019.8 1019.8 0.0
02/10:30pm 9.2 1.4 4.8 74 2.0 S 35 43 19 23 1019.7 1019.7 0.0
02/10:00pm 9.6 0.2 5.2 74 2.0 S 44 52 24 28 1019.5 1019.5 0.0
02/09:30pm 9.6 1.2 5.4 75 1.9 S 39 48 21 26 1019.6 1019.6 0.0
02/09:00pm 10.1 0.8 5.9 75 1.9 S 44 54 24 29 1019.4 1019.4 0.0
02/08:30pm 10.3 1.3 6.3 76 1.9 S 43 52 23 28 1019.2 1019.2 0.0
02/08:00pm 10.7 1.7 6.3 74 2.1 S 43 50 23 27 1018.9 1018.9 0.0
02/07:30pm 10.7 2.4 6.1 73 2.1 S 39 46 21 25 1018.7 1018.7 0.0
02/07:00pm 10.8 2.9 6.0 72 2.2 S 37 44 20 24 1018.7 1018.7 0.0
02/06:30pm 11.1 3.5 5.6 69 2.5 SSE 35 43 19 23 1018.5 1018.5 0.0
02/06:00pm 11.1 3.8 4.6 64 2.9 S 32 37 17 20 1018.1 1018.1 0.0
02/05:30pm 11.3 4.3 4.3 62 3.1 S 30 35 16 19 1017.8 1017.8 0.0
02/05:00pm 11.8 3.9 4.3 60 3.4 S 35 39 19 21 1017.3 1017.3 0.0
02/04:30pm 11.9 4.0 4.4 60 3.4 S 35 43 19 23 1017.0 1017.0 0.0
02/04:00pm 12.3 3.8 5.0 61 3.4 S 39 46 21 25 1016.7 1016.7 0.0
02/03:30pm 12.4 3.3 4.1 57 3.7 S 41 48 22 26 1016.4 1016.4 0.0
02/03:00pm 12.8 3.3 3.7 54 4.1 S 43 54 23 29 1016.1 1016.1 0.0
02/02:30pm 12.7 3.1 4.2 56 3.9 SSE 44 52 24 28 1015.8 1015.8 0.0
02/02:00pm 12.6 2.2 4.1 56 3.8 S 48 57 26 31 1015.7 1015.7 0.0
02/01:30pm 12.3 1.1 3.8 56 3.8 S 52 61 28 33 1015.7 1015.7 0.0
02/01:00pm 12.6 1.5 4.6 58 3.7 S 52 61 28 33 1015.6 1015.6 0.0
02/12:30pm 13.1 2.4 4.8 57 3.8 S 50 61 27 33 1015.7 1015.7 0.0
02/12:00pm 13.2 3.0 5.1 58 3.8 S 48 59 26 32 1015.6 1015.6 0.0
02/11:30am 12.9 1.5 4.8 58 3.7 S 54 65 29 35 1015.5 1015.5 0.0
02/11:00am 12.9 1.5 5.1 59 3.6 S 54 63 29 34 1015.4 1015.4 0.0
02/10:30am 12.6 0.9 5.1 60 3.5 S 56 70 30 38 1015.0 1015.0 0.0
02/10:00am 11.9 0.2 5.1 63 3.1 S 56 67 30 36 1014.8 1014.8 0.0
02/09:30am 11.7 0.0 5.1 64 3.0 S 56 67 30 36 1014.5 1014.5 0.0
02/09:00am 11.0 -0.4 4.9 66 2.8 S 54 65 29 35 1014.3 1014.3 0.8
02/08:30am 10.7 -0.7 5.0 68 2.6 S 54 65 29 35 1013.9 1013.9 0.8
02/08:00am 10.6 -0.3 5.4 70 2.4 S 52 63 28 34 1013.7 1013.7 0.8
02/07:30am 10.3 -1.0 5.3 71 2.3 S 54 65 29 35 1013.1 1013.1 0.8
02/07:00am 10.3 -0.2 5.5 72 2.2 S 50 61 27 33 1012.6 1012.6 0.8
02/06:30am 10.2 -0.7 5.4 72 2.2 S 52 59 28 32 1012.1 1012.1 0.8
02/06:00am 9.5 -1.3 6.0 79 1.6 S 52 63 28 34 1011.8 1011.8 0.8
02/05:30am 10.1 -0.3 6.1 76 1.9 S 50 59 27 32 1011.4 1011.4 0.8
02/05:00am 9.8 -1.9 6.3 79 1.6 S 57 76 31 41 1011.1 1011.1 0.8
02/04:49am 10.1 -0.2 6.6 79 1.6 S 50 69 27 37 1010.9 1010.9 0.8
02/04:30am 10.0 -0.7 6.5 79 1.6 S 52 61 28 33 1010.6 1010.6 0.8
02/04:03am 10.4 -1.3 6.4 76 1.9 S 57 76 31 41 1010.1 1010.1 0.8
02/04:00am 10.4 -1.1 6.2 75 2.0 S 56 69 30 37 1010.2 1010.2 0.8
02/03:58am 10.4 -1.1 6.2 75 2.0 S 56 74 30 40 1010.1 1010.1 0.8
02/03:30am 10.5 -1.1 6.8 78 1.7 S 57 69 31 37 1010.0 1010.0 0.8
02/03:16am 10.6 0.4 6.9 78 1.8 S 50 69 27 37 1009.7 1009.7 0.8
02/03:00am 10.7 -0.3 6.6 76 1.9 S 54 67 29 36 1009.6 1009.6 0.8
02/02:30am 11.2 0.6 6.7 74 2.1 S 52 63 28 34 1009.4 1009.4 0.8
02/02:00am 11.0 -1.4 6.4 73 2.2 S 61 72 33 39 1009.3 1009.3 0.8
02/01:30am 10.6 -1.0 6.6 76 1.9 S 57 70 31 38 1009.3 1009.3 0.8
02/01:00am 10.5 0.3 6.8 78 1.7 S 50 63 27 34 1009.2 1009.2 0.8
02/12:30am 10.0 -0.6 7.1 82 1.4 S 52 65 28 35 1009.0 1009.0 0.6
02/12:00am 10.7 1.5 7.8 82 1.4 S 46 59 25 32 1008.8 1008.8 0.6
 
Date/Time
EST
Temp
°C
App
Temp
°C
Dew
Point
Rel
Hum
%
Delta-T
°C
Wind Press
QNH
hPa
Press
MSL
hPa
Rain
since 9 am
mm
Dir
 
Spd
km/h
Gust
km/h
Spd
kts
Gust
kts
01/11:30pm 10.5 2.7 8.1 85 1.2 S 39 46 21 25 1008.5 1008.5 0.6
01/11:00pm 10.3 3.2 8.2 87 1.0 S 35 46 19 25 1008.3 1008.3 0.6
01/10:30pm 10.4 3.7 8.3 87 1.0 SSW 33 35 18 19 1008.2 1008.2 0.6
01/10:00pm 10.8 2.6 8.2 84 1.3 S 41 50 22 27 1007.8 1007.8 0.6
01/09:30pm 10.8 1.7 8.4 85 1.2 S 46 56 25 30 1007.7 1007.7 0.6
01/09:00pm 11.0 3.4 8.9 87 1.0 S 39 46 21 25 1007.6 1007.6 0.6
01/08:30pm 11.2 5.0 9.3 88 1.0 SSE 32 41 17 22 1007.3 1007.3 0.2
01/08:26pm 11.5 4.8 9.6 88 1.0 SSE 35 41 19 22 1007.3 1007.3 0.2
01/08:00pm 12.0 9.2 10.1 88 1.0 NW 15 20 8 11 1006.6 1006.6 0.0
01/07:30pm 11.8 9.3 9.7 87 1.1 WNW 13 17 7 9 1006.2 1006.2 0.0
01/07:00pm 12.0 8.5 10.1 88 1.0 W 19 24 10 13 1005.9 1005.9 0.0
01/06:30pm 12.4 8.4 10.5 88 1.0 NW 22 32 12 17 1005.5 1005.5 0.0
01/06:00pm 12.4 7.7 10.5 88 1.0 NW 26 33 14 18 1004.9 1004.9 0.0
01/05:30pm 12.3 7.5 10.4 88 1.0 NW 26 37 14 20 1004.6 1004.6 0.0
01/05:00pm 12.2 6.1 10.3 88 1.0 NW 33 46 18 25 1004.1 1004.1 0.0
01/04:30pm 12.3 5.8 10.4 88 1.0 NW 35 46 19 25 1003.7 1003.7 0.0
01/04:01pm 12.7 6.7 10.2 85 1.3 NW 32 52 17 28 1003.9 1003.9 0.0
01/04:00pm 12.7 6.7 10.2 85 1.3 NW 32 44 17 24 1004.0 1004.0 0.0
01/03:31pm 13.9 6.5 9.9 77 2.1 NW 39 57 21 31 1003.8 1003.8 0.0
01/03:30pm 14.0 6.6 10.0 77 2.1 NW 39 56 21 30 1003.8 1003.8 0.0
01/03:16pm 14.1 6.7 9.7 75 2.3 NW 39 61 21 33 1003.6 1003.6 0.0
01/03:00pm 14.4 7.8 10.0 75 2.3 NW 35 50 19 27 1003.6 1003.6 0.0
01/02:37pm 14.5 7.5 9.9 74 2.4 NW 37 56 20 30 1003.7 1003.7 0.0
01/02:30pm 14.9 8.0 10.3 74 2.4 NW 37 50 20 27 1003.6 1003.6 0.0
01/02:00pm 15.6 8.7 10.2 70 2.8 NNW 37 48 20 26 1003.5 1003.5 0.0
01/01:30pm 15.1 10.1 10.9 76 2.2 NNW 28 35 15 19 1003.7 1003.7 0.0
01/01:00pm 15.6 9.8 9.5 67 3.2 NW 30 41 16 22 1004.1 1004.1 0.0
01/12:30pm 15.7 9.6 9.8 68 3.1 NW 32 46 17 25 1004.9 1004.9 0.0
01/12:07pm 15.9 10.3 10.0 68 3.1 NNW 30 48 16 26 1005.1 1005.1 0.0
01/12:00pm 15.5 9.9 10.1 70 2.8 NNW 30 37 16 20 1005.3 1005.3 0.0
01/11:30am 15.4 10.9 10.2 71 2.7 NNW 24 32 13 17 1005.4 1005.4 0.0
01/11:00am 15.6 11.3 10.6 72 2.7 NNW 24 30 13 16 1005.4 1005.4 0.0
01/10:30am 15.9 10.1 9.6 66 3.3 NW 30 39 16 21 1006.2 1006.2 0.0
01/10:00am 15.7 9.3 9.4 66 3.3 NW 33 46 18 25 1006.3 1006.3 0.0
01/09:30am 14.9 9.8 10.5 75 2.3 N 28 37 15 20 1006.2 1006.2 0.0
01/09:00am 14.8 9.4 10.8 77 2.1 NNW 30 41 16 22 1006.7 1006.7 0.0
01/08:30am 14.8 8.7 10.6 76 2.2 NNW 33 41 18 22 1007.0 1007.0 0.0
01/08:25am 14.7 8.7 10.9 78 2.0 NNW 33 41 18 22 1007.0 1007.0 0.0
01/08:00am 13.7 11.4 10.5 81 1.7 N 13 15 7 8 1007.5 1007.5 0.0
01/07:30am 13.6 10.6 10.8 83 1.5 NNW 17 20 9 11 1007.7 1007.7 0.0
01/07:00am 13.7 10.9 11.2 85 1.3 NNW 17 26 9 14 1007.8 1007.8 0.0
01/06:30am 13.8 9.0 11.5 86 1.2 N 28 37 15 20 1007.6 1007.6 0.0
01/06:00am 13.8 8.8 11.1 84 1.4 N 28 35 15 19 1007.8 1007.8 0.0
01/05:30am 13.8 8.1 11.1 84 1.4 N 32 39 17 21 1007.7 1007.7 0.0
01/05:00am 13.8 8.9 11.3 85 1.3 N 28 35 15 19 1008.1 1008.1 0.0
01/04:30am 13.5 9.1 11.6 88 1.0 N 26 32 14 17 1008.2 1008.2 0.0
01/04:00am 13.5 9.4 11.6 88 1.0 N 24 30 13 16 1008.7 1008.7 0.0
01/03:30am 13.4 9.3 11.6 89 1.0 NNW 24 30 13 16 1009.0 1009.0 0.0
01/03:00am 13.6 8.8 11.5 87 1.1 N 28 37 15 20 1009.3 1009.3 0.0
01/02:30am 13.5 9.0 11.4 87 1.1 N 26 32 14 17 1009.6 1009.6 0.0
01/02:00am 13.5 8.7 11.6 88 1.0 N 28 35 15 19 1010.0 1010.0 0.0
01/01:30am 13.4 9.5 12.0 91 0.8 N 24 32 13 17 1010.5 1010.5 0.0
01/01:00am 13.2 10.0 11.8 91 0.7 N 20 26 11 14 1010.8 1010.8 0.0
01/12:30am 13.2 9.9 11.6 90 0.9 N 20 24 11 13 1011.2 1011.2 0.0
01/12:00am 13.1 10.3 11.3 89 1.0 N 17 20 9 11 1011.4 1011.4 0.0
 
Date/Time
EST
Temp
°C
App
Temp
°C
Dew
Point
Rel
Hum
%
Delta-T
°C
Wind Press
QNH
hPa
Press
MSL
hPa
Rain
since 9 am
mm
Dir
 
Spd
km/h
Gust
km/h
Spd
kts
Gust
kts
31/11:30pm 12.9 10.0 11.1 89 0.9 N 17 20 9 11 1011.8 1011.8 0.0
31/11:00pm 12.9 9.7 11.1 89 0.9 N 19 24 10 13 1012.1 1012.1 0.0
31/10:30pm 12.7 9.4 10.9 89 0.9 N 19 22 10 12 1012.6 1012.6 0.0
31/10:00pm 12.8 9.6 11.2 90 0.8 N 19 24 10 13 1012.8 1012.8 0.0
31/09:30pm 12.9 8.8 11.3 90 0.8 N 24 30 13 16 1013.3 1013.3 0.0
31/09:00pm 12.7 8.9 11.3 91 0.7 N 22 28 12 15 1013.4 1013.4 0.0
31/08:30pm 12.8 8.3 11.4 91 0.7 N 26 32 14 17 1013.7 1013.7 0.0
31/08:00pm 12.8 9.4 11.4 91 0.7 N 20 28 11 15 1014.0 1014.0 0.0
31/07:30pm 12.5 9.6 10.9 90 0.8 NNW 17 19 9 10 1014.1 1014.1 0.0
31/07:00pm 12.3 9.7 10.7 90 0.8 NNW 15 20 8 11 1014.0 1014.0 0.0
31/06:30pm 12.9 10.1 11.3 90 0.8 NNW 17 20 9 11 1014.0 1014.0 0.0
31/06:00pm 13.0 10.2 11.2 89 0.9 N 17 24 9 13 1013.9 1013.9 0.0
31/05:30pm 13.2 10.0 11.4 89 1.0 N 19 24 10 13 1014.1 1014.1 0.0
31/05:00pm 13.6 9.8 11.3 86 1.2 N 22 28 12 15 1014.1 1014.1 0.0
31/04:30pm 14.2 10.8 11.4 83 1.5 N 20 26 11 14 1014.1 1014.1 0.0
31/04:00pm 14.7 10.6 11.5 81 1.7 N 24 28 13 15 1014.2 1014.2 0.0
31/03:30pm 15.1 11.0 11.5 79 1.9 N 24 32 13 17 1014.4 1014.4 0.0
31/03:00pm 15.5 11.1 11.7 78 2.1 N 26 32 14 17 1014.8 1014.8 0.0
31/02:30pm 15.8 11.9 12.0 78 2.1 N 24 30 13 16 1015.2 1015.2 0.0
31/02:00pm 15.3 11.2 11.5 78 2.0 N 24 30 13 16 1015.5 1015.5 0.0
31/01:30pm 14.9 10.9 11.7 81 1.7 N 24 30 13 16 1015.9 1015.9 0.0
31/01:00pm 16.3 12.3 11.9 75 2.4 N 24 28 13 15 1016.3 1016.3 0.0
31/12:30pm 15.7 11.6 11.5 76 2.3 N 24 28 13 15 1016.7 1016.7 0.0
31/12:00pm 16.2 12.6 12.0 76 2.3 N 22 26 12 14 1017.3 1017.3 0.0
31/11:30am 16.2 12.2 11.8 75 2.4 N 24 28 13 15 1017.7 1017.7 0.0
31/11:00am 15.8 12.8 11.8 77 2.2 N 19 22 10 12 1018.2 1018.2 0.0
31/10:30am 15.0 12.5 11.2 78 2.0 N 15 17 8 9 1018.6 1018.6 0.0
31/10:00am 15.0 13.3 11.2 78 2.0 N 11 13 6 7 1019.1 1019.2 0.0

Other Formats:

Comma delimited format used in spreadsheet applications
http://www.bom.gov.au/fwo/IDT60801/IDT60801.94983.axf

JavaScript Object Notation format (JSON) in row-major order
http://www.bom.gov.au/fwo/IDT60801/IDT60801.94983.json